createdAt,value
2019-05-11T00:02:03.547Z,28.40
2019-05-11T00:04:32.871Z,31.13
2019-05-11T00:07:02.490Z,25.57
2019-05-11T00:09:31.764Z,26.63
2019-05-11T00:12:01.083Z,26.27
2019-05-11T00:14:30.534Z,26.53
2019-05-11T00:16:59.812Z,29.77
2019-05-11T00:19:29.034Z,29.87
2019-05-11T00:21:58.556Z,29.60
2019-05-11T00:24:29.525Z,29.77
2019-05-11T00:26:58.833Z,28.23
2019-05-11T00:29:28.272Z,30.70
2019-05-11T00:31:57.531Z,27.53
2019-05-11T00:34:26.745Z,30.07
2019-05-11T00:36:56.179Z,30.07
2019-05-11T00:39:25.424Z,26.93
2019-05-11T00:41:54.731Z,23.87
2019-05-11T00:44:24.181Z,25.93
2019-05-11T00:46:53.430Z,23.50
2019-05-11T00:49:22.693Z,23.77
2019-05-11T00:51:52.182Z,23.03
2019-05-11T00:54:21.448Z,20.63
2019-05-11T00:56:50.653Z,19.07
2019-05-11T00:59:22.032Z,21.13
2019-05-11T01:01:51.091Z,19.60
2019-05-11T01:04:20.340Z,19.50
2019-05-11T01:06:49.850Z,26.67
2019-05-11T01:09:19.070Z,21.17
2019-05-11T01:11:48.278Z,20.70
2019-05-11T01:14:17.726Z,21.67
2019-05-11T01:16:47.056Z,24.13
2019-05-11T01:19:16.270Z,23.07
2019-05-11T01:21:45.731Z,23.67
2019-05-11T01:24:15.085Z,24.80
2019-05-11T01:26:44.361Z,24.27
2019-05-11T01:29:13.670Z,23.43
2019-05-11T01:31:42.929Z,26.97
2019-05-11T01:34:12.173Z,24.60
2019-05-11T01:36:41.632Z,25.30
2019-05-11T01:39:10.898Z,23.77
2019-05-11T01:41:40.447Z,22.00
2019-05-11T01:44:09.842Z,23.70
2019-05-11T01:46:39.095Z,22.23
2019-05-11T01:49:08.326Z,27.13
2019-05-11T01:51:37.643Z,20.77
2019-05-11T01:54:06.877Z,26.20
2019-05-11T01:56:36.095Z,22.20
2019-05-11T01:59:05.424Z,21.90
2019-05-11T02:01:34.705Z,21.93
2019-05-11T02:04:04.056Z,19.43
2019-05-11T02:06:33.751Z,25.80
2019-05-11T02:09:03.289Z,20.07
2019-05-11T02:11:32.544Z,35.77
2019-05-11T02:14:01.949Z,23.63
2019-05-11T02:16:31.214Z,23.37
2019-05-11T02:19:00.453Z,38.73
2019-05-11T02:21:29.848Z,24.83
2019-05-11T02:23:59.098Z,22.40
2019-05-11T02:26:28.444Z,22.27
2019-05-11T02:28:57.879Z,21.60
2019-05-11T02:31:27.133Z,20.10
2019-05-11T02:33:56.352Z,24.07
2019-05-11T02:36:25.769Z,21.50
2019-05-11T02:38:57.227Z,23.33
2019-05-11T02:41:36.197Z,19.37
2019-05-11T02:43:57.812Z,20.37
2019-05-11T02:46:27.077Z,25.87
2019-05-11T02:48:56.337Z,19.60
2019-05-11T02:51:26.567Z,19.90
2019-05-11T02:53:56.540Z,19.53
2019-05-11T02:56:25.735Z,19.37
2019-05-11T02:58:55.038Z,18.23
2019-05-11T03:01:24.306Z,20.23
2019-05-11T03:03:53.511Z,25.03
2019-05-11T03:06:22.903Z,19.67
2019-05-11T03:08:52.237Z,19.10
2019-05-11T03:11:21.499Z,18.97
2019-05-11T03:13:50.789Z,18.40
2019-05-11T03:16:20.036Z,20.47
2019-05-11T03:18:49.274Z,17.17
2019-05-11T03:21:18.663Z,15.83
2019-05-11T03:23:47.926Z,17.60
2019-05-11T03:26:17.208Z,15.63
2019-05-11T03:28:46.629Z,14.90
2019-05-11T03:31:17.673Z,18.90
2019-05-11T03:33:47.063Z,14.93
2019-05-11T03:36:16.281Z,15.47
2019-05-11T03:38:45.547Z,15.90
2019-05-11T03:41:15.122Z,15.03
2019-05-11T03:43:44.342Z,13.93
2019-05-11T03:46:13.579Z,11.67
2019-05-11T03:48:42.904Z,11.43
2019-05-11T03:51:12.221Z,10.67
2019-05-11T03:53:41.558Z,13.27
2019-05-11T03:56:10.993Z,11.80
2019-05-11T03:58:40.212Z,11.23
2019-05-11T04:01:09.626Z,12.43
2019-05-11T04:03:39.132Z,12.37
2019-05-11T04:06:08.353Z,12.40
2019-05-11T04:08:37.604Z,10.27
2019-05-11T04:11:07.023Z,11.33
2019-05-11T04:13:36.250Z,13.47
2019-05-11T04:16:05.523Z,11.23
2019-05-11T04:18:34.831Z,14.73
2019-05-11T04:21:04.043Z,13.70
2019-05-11T04:23:33.286Z,10.67
2019-05-11T04:26:02.825Z,12.53
2019-05-11T04:28:32.055Z,12.03
2019-05-11T04:31:01.396Z,12.70
2019-05-11T04:33:33.129Z,11.83
2019-05-11T04:36:01.804Z,11.30
2019-05-11T04:38:31.053Z,11.80
2019-05-11T04:41:00.456Z,11.60
2019-05-11T04:43:29.705Z,11.23
2019-05-11T04:45:59.000Z,11.67
2019-05-11T04:48:28.352Z,9.87
2019-05-11T04:50:57.568Z,9.17
2019-05-11T04:53:26.812Z,10.63
2019-05-11T04:55:56.714Z,10.33
2019-05-11T04:58:25.909Z,8.57
2019-05-11T05:00:55.144Z,9.90
2019-05-11T05:03:39.862Z,12.37
2019-05-11T05:05:55.523Z,10.27
2019-05-11T05:08:26.449Z,10.37
2019-05-11T05:10:58.446Z,10.10
2019-05-11T05:13:29.375Z,8.77
2019-05-11T05:15:58.056Z,8.17
2019-05-11T05:18:27.262Z,7.97
2019-05-11T05:20:56.711Z,8.03
2019-05-11T05:23:25.954Z,7.43
2019-05-11T05:25:55.277Z,7.40
2019-05-11T05:28:24.743Z,8.63
2019-05-11T05:30:54.099Z,7.87
2019-05-11T05:33:23.463Z,8.43
2019-05-11T05:35:52.831Z,7.10
2019-05-11T05:38:22.087Z,8.10
2019-05-11T05:40:51.358Z,7.10
2019-05-11T05:43:27.374Z,7.63
2019-05-11T05:45:51.845Z,7.70
2019-05-11T05:48:21.193Z,6.77
2019-05-11T05:50:50.402Z,5.57
2019-05-11T05:53:19.667Z,7.80
2019-05-11T05:55:48.997Z,8.50
2019-05-11T05:58:18.224Z,8.43
2019-05-11T06:00:47.474Z,8.27
2019-05-11T06:03:16.897Z,7.10
2019-05-11T06:05:46.234Z,7.70
2019-05-11T06:08:15.525Z,6.67
2019-05-11T06:10:45.097Z,7.13
2019-05-11T06:13:14.449Z,6.47
2019-05-11T06:15:43.742Z,6.80
2019-05-11T06:18:13.144Z,10.43
2019-05-11T06:20:42.377Z,7.83
2019-05-11T06:23:11.637Z,6.90
2019-05-11T06:25:40.968Z,8.10
2019-05-11T06:28:10.236Z,6.87
2019-05-11T06:30:39.531Z,8.90
2019-05-11T06:33:08.914Z,7.10
2019-05-11T06:35:38.241Z,6.60
2019-05-11T06:38:07.505Z,7.30
2019-05-11T06:40:37.002Z,8.40
2019-05-11T06:43:06.356Z,6.57
2019-05-11T06:45:35.971Z,6.40
2019-05-11T06:48:05.344Z,6.77
2019-05-11T06:50:34.569Z,9.47
2019-05-11T06:53:03.870Z,7.17
2019-05-11T06:55:33.228Z,7.30
2019-05-11T06:58:02.447Z,8.63
2019-05-11T07:00:31.710Z,7.27
2019-05-11T07:03:01.109Z,7.07
2019-05-11T07:05:30.344Z,6.57
2019-05-11T07:07:59.599Z,7.10
2019-05-11T07:10:28.999Z,6.67
2019-05-11T07:12:58.221Z,8.67
2019-05-11T07:15:27.543Z,6.17
2019-05-11T07:17:56.932Z,6.57
2019-05-11T07:20:26.226Z,5.80
2019-05-11T07:22:55.673Z,5.70
2019-05-11T07:25:24.963Z,5.57
2019-05-11T07:27:54.209Z,5.77
2019-05-11T07:30:23.500Z,5.40
2019-05-11T07:32:52.913Z,5.40
2019-05-11T07:35:22.124Z,4.87
2019-05-11T07:37:51.586Z,5.00
2019-05-11T07:40:20.961Z,4.80
2019-05-11T07:42:50.173Z,5.45
2019-05-11T07:45:19.514Z,8.38
2019-05-11T07:47:48.827Z,4.58
2019-05-11T07:50:18.987Z,3.90
2019-05-11T07:52:48.505Z,4.53
2019-05-11T07:55:19.022Z,3.87
2019-05-11T07:57:48.433Z,3.92
2019-05-11T08:00:18.759Z,5.05
2019-05-11T08:02:48.454Z,8.50
2019-05-11T08:05:18.140Z,4.37
2019-05-11T08:07:48.289Z,3.75
2019-05-11T08:10:18.554Z,4.90
2019-05-11T08:12:48.330Z,7.70
2019-05-11T08:15:18.507Z,7.33
2019-05-11T08:17:49.024Z,4.25
2019-05-11T08:20:18.895Z,4.45
2019-05-11T08:22:48.429Z,3.05
2019-05-11T08:25:18.317Z,3.85
2019-05-11T08:27:48.494Z,5.03
2019-05-11T08:30:18.914Z,4.60
2019-05-11T08:32:49.325Z,4.30
2019-05-11T08:35:19.498Z,2.87
2019-05-11T08:37:49.050Z,2.60
2019-05-11T08:40:19.374Z,4.55
2019-05-11T08:42:48.601Z,2.50
2019-05-11T08:45:24.732Z,2.95
2019-05-11T08:47:52.188Z,3.50
2019-05-11T08:50:22.791Z,3.22
2019-05-11T08:52:52.428Z,3.65
2019-05-11T08:55:21.744Z,5.65
2019-05-11T08:57:51.004Z,4.00
2019-05-11T09:00:20.412Z,4.30
2019-05-11T09:02:50.684Z,4.85
2019-05-11T09:05:20.553Z,3.10
2019-05-11T09:07:49.968Z,3.42
2019-05-11T09:10:19.296Z,5.42
2019-05-11T09:12:49.028Z,3.60
2019-05-11T09:15:32.329Z,3.20
2019-05-11T09:17:49.736Z,4.28
2019-05-11T09:20:19.247Z,4.33
2019-05-11T09:22:48.715Z,4.60
2019-05-11T09:25:18.473Z,3.60
2019-05-11T09:27:48.528Z,3.87
2019-05-11T09:30:18.684Z,4.03
2019-05-11T09:32:47.997Z,3.60
2019-05-11T09:35:18.947Z,4.42
2019-05-11T09:37:48.636Z,3.83
2019-05-11T09:40:18.519Z,4.17
2019-05-11T09:42:48.158Z,4.28
2019-05-11T09:45:18.725Z,3.55
2019-05-11T09:47:48.351Z,3.85
2019-05-11T09:50:19.103Z,3.15
2019-05-11T09:52:49.128Z,4.17
2019-05-11T09:55:19.273Z,4.00
2019-05-11T09:57:48.917Z,4.25
2019-05-11T10:00:18.862Z,4.50
2019-05-11T10:02:48.946Z,3.37
2019-05-11T10:05:19.135Z,3.00
2019-05-11T10:07:48.779Z,3.00
2019-05-11T10:10:18.874Z,6.67
2019-05-11T10:12:48.972Z,4.35
2019-05-11T10:15:20.420Z,4.00
2019-05-11T10:17:49.665Z,4.87
2019-05-11T10:20:19.091Z,7.22
2019-05-11T10:22:48.817Z,3.67
2019-05-11T10:25:18.438Z,2.87
2019-05-11T10:27:50.918Z,3.20
2019-05-11T10:30:21.164Z,5.60
2019-05-11T10:32:50.398Z,3.05
2019-05-11T10:35:19.932Z,4.58
2019-05-11T10:37:49.372Z,3.85
2019-05-11T10:40:19.267Z,5.62
2019-05-11T10:42:50.483Z,3.22
2019-05-11T10:45:20.046Z,5.12
2019-05-11T10:47:49.337Z,4.25
2019-05-11T10:50:19.116Z,3.27
2019-05-11T10:52:48.599Z,4.37
2019-05-11T10:55:19.420Z,4.10
2019-05-11T10:57:49.247Z,5.47
2019-05-11T11:00:19.257Z,4.72
2019-05-11T11:02:48.510Z,4.55
2019-05-11T11:05:18.832Z,4.45
2019-05-11T11:07:48.705Z,6.53
2019-05-11T11:10:18.399Z,3.33
2019-05-11T11:12:48.985Z,4.28
2019-05-11T11:15:18.519Z,6.37
2019-05-11T11:17:48.569Z,5.00
2019-05-11T11:20:18.823Z,3.72
2019-05-11T11:22:50.449Z,4.33
2019-05-11T11:25:19.768Z,4.33
2019-05-11T11:27:49.044Z,2.75
2019-05-11T11:30:19.410Z,3.87
2019-05-11T11:32:48.895Z,3.98
2019-05-11T11:35:18.870Z,5.70
2019-05-11T11:37:48.365Z,4.70
2019-05-11T11:40:18.128Z,3.85
2019-05-11T11:42:47.924Z,2.05
2019-05-11T11:45:18.439Z,2.98
2019-05-11T11:47:49.336Z,3.80
2019-05-11T11:50:18.811Z,2.00
2019-05-11T11:52:48.038Z,3.85
2019-05-11T11:55:18.626Z,4.50
2019-05-11T11:57:49.695Z,2.65
2019-05-11T12:00:19.988Z,3.37
2019-05-11T12:02:49.464Z,3.05
2019-05-11T12:05:18.791Z,2.70
2019-05-11T12:07:49.057Z,2.93
2019-05-11T12:10:20.110Z,4.62
2019-05-11T12:12:49.472Z,4.92
2019-05-11T12:15:18.684Z,3.43
2019-05-11T12:17:48.383Z,3.10
2019-05-11T12:20:18.439Z,2.63
2019-05-11T12:22:47.826Z,2.50
2019-05-11T12:25:18.522Z,2.63
2019-05-11T12:27:49.004Z,3.52
2019-05-11T12:30:18.719Z,3.57
2019-05-11T12:32:49.935Z,2.80
2019-05-11T12:35:19.604Z,2.70
2019-05-11T12:37:48.815Z,2.87
2019-05-11T12:40:18.928Z,2.87
2019-05-11T12:42:49.065Z,3.45
2019-05-11T12:45:18.728Z,3.45
2019-05-11T12:47:48.233Z,4.37
2019-05-11T12:50:18.773Z,2.03
2019-05-11T12:52:48.199Z,3.67
2019-05-11T12:55:19.861Z,4.67
2019-05-11T12:57:49.205Z,4.25
2019-05-11T13:00:20.093Z,3.60
2019-05-11T13:02:49.477Z,4.28
2019-05-11T13:05:18.795Z,5.97
2019-05-11T13:07:48.475Z,5.28
2019-05-11T13:10:18.134Z,3.55
2019-05-11T13:12:49.257Z,3.58
2019-05-11T13:15:18.691Z,2.70
2019-05-11T13:17:49.164Z,2.92
2019-05-11T13:20:18.552Z,2.87
2019-05-11T13:22:48.908Z,1.92
2019-05-11T13:25:18.926Z,5.40
2019-05-11T13:27:49.138Z,4.50
2019-05-11T13:30:19.158Z,4.17
2019-05-11T13:32:49.148Z,2.30
2019-05-11T13:35:18.568Z,4.17
2019-05-11T13:37:48.091Z,4.00
2019-05-11T13:40:18.404Z,3.20
2019-05-11T13:42:49.001Z,3.00
2019-05-11T13:45:18.574Z,5.80
2019-05-11T13:47:55.200Z,9.63
2019-05-11T13:50:18.813Z,7.77
2019-05-11T13:52:48.211Z,8.77
2019-05-11T13:55:18.196Z,5.43
2019-05-11T13:57:48.544Z,7.97
2019-05-11T14:00:18.248Z,4.30
2019-05-11T14:02:48.504Z,17.17
2019-05-11T14:05:18.205Z,16.33
2019-05-11T14:07:48.315Z,11.60
2019-05-11T14:10:18.309Z,10.33
2019-05-11T14:12:47.867Z,11.37
2019-05-11T14:15:19.121Z,9.70
2019-05-11T14:17:53.096Z,6.80
2019-05-11T14:20:19.858Z,9.73
2019-05-11T14:22:49.097Z,13.17
2019-05-11T14:25:18.834Z,8.87
2019-05-11T14:27:48.580Z,18.13
2019-05-11T14:30:19.132Z,10.90
2019-05-11T14:32:48.582Z,10.53
2019-05-11T14:35:18.868Z,6.87
2019-05-11T14:37:48.731Z,10.77
2019-05-11T14:40:18.259Z,7.70
2019-05-11T14:42:48.961Z,6.70
2019-05-11T14:45:18.997Z,5.50
2019-05-11T14:47:48.558Z,7.27
2019-05-11T14:50:18.909Z,6.57
2019-05-11T14:52:49.098Z,8.33
2019-05-11T14:55:18.905Z,6.13
2019-05-11T14:57:48.680Z,6.83
2019-05-11T15:00:19.407Z,7.83
2019-05-11T15:02:50.019Z,9.60
2019-05-11T15:05:21.009Z,9.07
2019-05-11T15:07:52.742Z,10.10
2019-05-11T15:10:21.935Z,11.30
2019-05-11T15:12:51.393Z,9.60
2019-05-11T15:15:20.710Z,17.27
2019-05-11T15:17:49.946Z,7.57
2019-05-11T15:20:19.580Z,8.80
2019-05-11T15:22:49.175Z,8.90
2019-05-11T15:25:20.088Z,10.97
2019-05-11T15:27:49.850Z,11.57
2019-05-11T15:30:20.690Z,13.63
2019-05-11T15:32:50.023Z,14.63
2019-05-11T15:35:19.481Z,10.60
2019-05-11T15:37:48.858Z,7.87
2019-05-11T15:40:19.549Z,9.67
2019-05-11T15:42:49.037Z,8.70
2019-05-11T15:45:19.922Z,7.10
2019-05-11T15:47:49.269Z,5.03
2019-05-11T15:50:19.577Z,7.67
2019-05-11T15:52:49.162Z,7.43
2019-05-11T15:55:21.046Z,3.70
2019-05-11T15:57:50.375Z,6.60
2019-05-11T16:00:19.898Z,5.10
2019-05-11T16:02:49.558Z,6.67
2019-05-11T16:05:19.192Z,7.97
2019-05-11T16:07:49.201Z,11.63
2019-05-11T16:10:19.344Z,8.53
2019-05-11T16:12:49.048Z,10.93
2019-05-11T16:15:19.642Z,13.20
2019-05-11T16:17:50.017Z,9.57
2019-05-11T16:20:19.697Z,11.67
2019-05-11T16:22:48.955Z,12.90
2019-05-11T16:25:19.745Z,13.17
2019-05-11T16:27:49.397Z,10.37
2019-05-11T16:30:21.759Z,6.47
2019-05-11T16:32:49.863Z,9.83
2019-05-11T16:35:19.407Z,7.77
2019-05-11T16:37:48.962Z,10.93
2019-05-11T16:40:20.897Z,9.97
2019-05-11T16:42:49.478Z,8.80
2019-05-11T16:45:19.508Z,9.03
2019-05-11T16:47:49.450Z,9.23
2019-05-11T16:50:19.190Z,9.30
2019-05-11T16:52:48.650Z,10.33
2019-05-11T16:55:18.557Z,9.43
2019-05-11T16:57:48.805Z,9.93
2019-05-11T17:00:19.797Z,9.67
2019-05-11T17:02:49.420Z,7.27
2019-05-11T17:05:26.588Z,7.17
2019-05-11T17:07:49.857Z,6.37
2019-05-11T17:10:19.264Z,5.50
2019-05-11T17:12:49.132Z,8.20
2019-05-11T17:15:19.066Z,8.83
2019-05-11T17:17:49.158Z,6.97
2019-05-11T17:20:19.236Z,7.93
2019-05-11T17:22:53.802Z,7.77
2019-05-11T17:25:22.266Z,6.60
2019-05-11T17:27:51.595Z,7.27
2019-05-11T17:30:21.445Z,11.57
2019-05-11T17:32:50.997Z,11.43
2019-05-11T17:35:20.277Z,15.23
2019-05-11T17:37:49.491Z,18.17
2019-05-11T17:40:23.074Z,20.93
2019-05-11T17:42:53.381Z,23.37
2019-05-11T17:45:21.271Z,21.00
2019-05-11T17:47:50.545Z,14.67
2019-05-11T17:50:19.748Z,5.73
2019-05-11T17:52:49.216Z,6.20
2019-05-11T17:55:18.849Z,6.67
2019-05-11T17:57:49.499Z,8.33
2019-05-11T18:00:20.206Z,14.17
2019-05-11T18:02:49.819Z,6.90
2019-05-11T18:05:19.081Z,9.07
2019-05-11T18:07:48.400Z,8.23
2019-05-11T18:10:20.342Z,10.23
2019-05-11T18:12:49.664Z,8.77
2019-05-11T18:15:19.224Z,9.03
2019-05-11T18:17:49.189Z,9.23
2019-05-11T18:20:21.649Z,10.67
2019-05-11T18:22:50.833Z,11.10
2019-05-11T18:25:20.312Z,8.80
2019-05-11T18:27:49.874Z,8.93
2019-05-11T18:30:19.191Z,10.23
2019-05-11T18:32:49.174Z,6.57
2019-05-11T18:35:19.739Z,10.30
2019-05-11T18:37:49.350Z,9.33
2019-05-11T18:40:19.150Z,10.03
2019-05-11T18:42:49.207Z,9.83
2019-05-11T18:45:19.457Z,10.20
2019-05-11T18:47:49.476Z,10.10
2019-05-11T18:50:30.067Z,12.67
2019-05-11T18:52:50.332Z,12.27
2019-05-11T18:55:19.650Z,15.60
2019-05-11T18:57:49.531Z,17.03
2019-05-11T19:00:20.274Z,17.47
2019-05-11T19:02:49.939Z,14.00
2019-05-11T19:05:19.529Z,12.77
2019-05-11T19:07:48.961Z,14.07
2019-05-11T19:10:18.243Z,13.97
2019-05-11T19:12:48.755Z,11.77
2019-05-11T19:15:19.333Z,13.93
2019-05-11T19:17:49.337Z,10.90
2019-05-11T19:20:19.247Z,11.80
2019-05-11T19:22:48.600Z,12.30
2019-05-11T19:25:18.372Z,11.57
2019-05-11T19:27:50.227Z,10.70
2019-05-11T19:30:20.121Z,11.23
2019-05-11T19:32:49.483Z,12.50
2019-05-11T19:35:21.139Z,9.80
2019-05-11T19:37:49.711Z,8.37
2019-05-11T19:40:19.170Z,7.80
2019-05-11T19:42:55.105Z,6.83
2019-05-11T19:45:24.871Z,8.33
2019-05-11T19:47:54.061Z,6.20
2019-05-11T19:50:23.309Z,4.30
2019-05-11T19:52:52.944Z,4.57
2019-05-11T19:55:22.237Z,5.90
2019-05-11T19:57:51.468Z,4.17
2019-05-11T20:00:20.814Z,6.23
2019-05-11T20:02:50.036Z,4.20
2019-05-11T20:05:19.268Z,6.37
2019-05-11T20:07:49.135Z,4.00
2019-05-11T20:10:19.147Z,5.67
2019-05-11T20:12:49.244Z,4.23
2019-05-11T20:15:19.277Z,4.20
2019-05-11T20:17:49.148Z,4.20
2019-05-11T20:20:18.939Z,4.83
2019-05-11T20:22:48.762Z,8.90
2019-05-11T20:25:19.303Z,5.37
2019-05-11T20:27:49.343Z,5.57
2019-05-11T20:30:19.519Z,5.50
2019-05-11T20:32:49.476Z,6.63
2019-05-11T20:35:21.893Z,6.27
2019-05-11T20:37:51.147Z,6.50
2019-05-11T20:40:20.362Z,4.77
2019-05-11T20:42:49.793Z,7.13
2019-05-11T20:45:19.169Z,4.67
2019-05-11T20:47:48.877Z,5.27
2019-05-11T20:50:18.883Z,4.33
2019-05-11T20:52:48.485Z,5.87
2019-05-11T20:55:18.398Z,5.07
2019-05-11T20:57:48.712Z,4.60
2019-05-11T21:00:18.796Z,5.07
2019-05-11T21:02:48.831Z,7.27
2019-05-11T21:05:18.930Z,5.13
2019-05-11T21:07:48.242Z,4.70
2019-05-11T21:10:18.448Z,5.90
2019-05-11T21:12:47.756Z,4.47
2019-05-11T21:15:17.611Z,5.13
2019-05-11T21:17:48.203Z,5.50
2019-05-11T21:20:18.286Z,5.80
2019-05-11T21:22:48.700Z,3.97
2019-05-11T21:25:18.336Z,3.43
2019-05-11T21:27:49.336Z,3.60
2019-05-11T21:30:19.112Z,3.47
2019-05-11T21:32:48.521Z,3.60
2019-05-11T21:35:19.253Z,5.53
2019-05-11T21:37:48.905Z,4.47
2019-05-11T21:40:19.089Z,4.43
2019-05-11T21:42:48.318Z,2.40
2019-05-11T21:45:18.320Z,3.20
2019-05-11T21:47:49.038Z,2.97
2019-05-11T21:50:19.225Z,2.50
2019-05-11T21:52:48.724Z,4.47
2019-05-11T21:55:18.241Z,2.13
2019-05-11T21:57:49.687Z,8.03
2019-05-11T22:00:19.053Z,2.17
2019-05-11T22:02:49.985Z,3.90
2019-05-11T22:05:20.829Z,4.40
2019-05-11T22:07:50.285Z,2.77
2019-05-11T22:10:20.014Z,2.30
2019-05-11T22:12:49.311Z,2.10
2019-05-11T22:15:19.150Z,2.37
2019-05-11T22:17:48.375Z,2.73
2019-05-11T22:20:18.345Z,1.60
2019-05-11T22:22:48.210Z,2.73
2019-05-11T22:25:18.342Z,2.57
2019-05-11T22:27:48.765Z,2.10
2019-05-11T22:30:18.924Z,3.90
2019-05-11T22:32:48.159Z,2.50
2019-05-11T22:35:18.288Z,1.60
2019-05-11T22:37:49.038Z,1.50
2019-05-11T22:40:18.742Z,5.33
2019-05-11T22:42:47.953Z,3.07
2019-05-11T22:45:18.782Z,2.57
2019-05-11T22:47:48.499Z,2.00
2019-05-11T22:50:18.715Z,3.63
2019-05-11T22:52:48.637Z,3.03
2019-05-11T22:55:18.930Z,1.47
2019-05-11T22:57:48.622Z,2.30
2019-05-11T23:00:21.838Z,2.17
2019-05-11T23:02:51.101Z,2.27
2019-05-11T23:05:20.329Z,2.23
2019-05-11T23:07:49.756Z,1.13
2019-05-11T23:10:18.960Z,1.80
2019-05-11T23:12:48.396Z,2.20
2019-05-11T23:15:19.457Z,2.23
2019-05-11T23:17:48.729Z,2.07
2019-05-11T23:20:18.502Z,1.93
2019-05-11T23:22:56.980Z,1.80
2019-05-11T23:25:19.524Z,2.50
2019-05-11T23:27:49.054Z,1.27
2019-05-11T23:30:20.073Z,2.33
2019-05-11T23:32:50.003Z,2.40
2019-05-11T23:35:19.384Z,1.47
2019-05-11T23:37:49.812Z,3.70
2019-05-11T23:40:20.166Z,1.43
2019-05-11T23:42:49.554Z,2.63
2019-05-11T23:45:20.295Z,1.00
2019-05-11T23:47:49.633Z,1.73
2019-05-11T23:50:19.517Z,1.57
2019-05-11T23:53:04.200Z,2.50
2019-05-11T23:55:20.090Z,5.77
2019-05-11T23:57:49.419Z,2.77
